Hamamatsu Air Base, Japan

7:38 AM JST on September 02, 2015 (GMT +0900)
Nagoya / Chubu | | Change Station
CLOSE
Current Station
Airport
Location: Nagoya / Chubu,
Elevation: 16 ft
Nearby Weather Stations

Elev 16 ft 34.86 °N, 136.81 °E | Updated 8 minutes ago

Light Rain Showers
Light Showers Rain
77 °F
Feels Like 77 °F
N
7
Wind Variable Wind from West

Today
High -- | Low -- °F
--% Chance of Precip.
Yesterday
High -- | Low -- °F
Precip. -- in
5:22 AM 6:15 PM
Waning Gibbous, 86% visible
Pressure 29.86 in
Visibility 5.6 miles
Clouds Few 1000 ft
Scattered Clouds 3000 ft
Mostly Cloudy 5000 ft
Dew Point 75 °F
Humidity 94%
Rainfall 0.00 in
Snow Depth Not available.
UV 1 out of 12
Pollen Not available.
Air Quality Not available.
Flu Activity Not available.
METAR RJGG 012230Z 26006KT 9000 -SHRA FEW010 SCT030 BKN050 25/24 Q1011 BECMG 28005KT
Pressure 29.86 in
Visibility 5.6 miles
Clouds Few 1000 ft
Scattered Clouds 3000 ft
Mostly Cloudy 5000 ft
Dew Point 75 °F
Humidity 94%
Rainfall 0.00 in
Snow Depth Not available.
UV 1 out of 12
Pollen Not available.
Air Quality Not available.
Flu Activity Not available.
METAR RJGG 012230Z 26006KT 9000 -SHRA FEW010 SCT030 BKN050 25/24 Q1011 BECMG 28005KT

10-Day Weather Forecast

×

Almanac

Astronomy

Sep. 02, 2015 Rise Set
Actual Time
Civil Twilight
Nautical Twilight
Astronomical Twilight
Moon
Length of Visible Light
Length of Day
Tomorrow will be .
, % of the Moon is Illuminated

Today's Extremes

Country Highs Country Lows

Community

WunderPhotos

Upload Photos

1,851,634 photos uploaded!

WunderBlogs® & News

Nearby

Air Quality

  Air Quality AQ Index Pollutant
Not available.

Snow Depth

Station Depth Elevation

Earthquake Activity

City Distance Mag. Time & Date
Minimum magnitude displayed is 2.5.

Coastal Water Temperatures

Place Temperature

Stations

Nearby Weather Stations

Station Location Temp. Windchill Dew Point Humidity Wind Precip. Elev Updated Type